sensor_id;sensor_type;location;lat;lon;timestamp;pressure;altitude;pressure_sealevel;temperature;humidity
73457;BME280;61691;53.072;6.582;2022-12-22T00:01:34;100371.19;;;8.91;82.61
73457;BME280;61691;53.072;6.582;2022-12-22T00:04:21;100373.81;;;8.91;83.15
73457;BME280;61691;53.072;6.582;2022-12-22T00:07:07;100378.44;;;8.99;82.95
73457;BME280;61691;53.072;6.582;2022-12-22T00:09:53;100379.28;;;9.00;82.77
73457;BME280;61691;53.072;6.582;2022-12-22T00:12:38;100368.28;;;8.95;82.85
73457;BME280;61691;53.072;6.582;2022-12-22T00:15:23;100362.53;;;8.89;82.86
73457;BME280;61691;53.072;6.582;2022-12-22T00:18:13;100365.91;;;9.01;82.96
73457;BME280;61691;53.072;6.582;2022-12-22T00:21:00;100365.09;;;9.01;82.91
73457;BME280;61691;53.072;6.582;2022-12-22T00:23:45;100360.06;;;8.98;82.84
73457;BME280;61691;53.072;6.582;2022-12-22T00:26:32;100372.03;;;9.02;82.86
73457;BME280;61691;53.072;6.582;2022-12-22T00:29:18;100363.41;;;9.00;82.96
73457;BME280;61691;53.072;6.582;2022-12-22T00:32:04;100368.41;;;9.03;83.13
73457;BME280;61691;53.072;6.582;2022-12-22T00:34:50;100366.75;;;9.02;82.90
73457;BME280;61691;53.072;6.582;2022-12-22T00:37:36;100373.44;;;9.06;83.05
73457;BME280;61691;53.072;6.582;2022-12-22T00:40:26;100353.09;;;8.97;83.16
73457;BME280;61691;53.072;6.582;2022-12-22T00:43:12;100346.16;;;9.05;83.08
73457;BME280;61691;53.072;6.582;2022-12-22T00:45:58;100342.97;;;9.02;82.88
73457;BME280;61691;53.072;6.582;2022-12-22T00:48:45;100346.28;;;9.04;83.03
73457;BME280;61691;53.072;6.582;2022-12-22T00:51:32;100341.72;;;9.06;83.43
73457;BME280;61691;53.072;6.582;2022-12-22T00:54:18;100338.81;;;9.09;83.29
73457;BME280;61691;53.072;6.582;2022-12-22T00:57:04;100310.94;;;8.85;83.39
73457;BME280;61691;53.072;6.582;2022-12-22T00:59:51;100343.09;;;9.10;83.26
73457;BME280;61691;53.072;6.582;2022-12-22T01:02:37;100311.09;;;8.93;83.25
73457;BME280;61691;53.072;6.582;2022-12-22T01:05:22;100270.13;;;8.69;83.03
73457;BME280;61691;53.072;6.582;2022-12-22T01:08:08;100341.72;;;9.15;83.31
73457;BME280;61691;53.072;6.582;2022-12-22T01:10:54;100310.56;;;9.09;83.44
73457;BME280;61691;53.072;6.582;2022-12-22T01:13:40;100318.31;;;9.11;83.55
73457;BME280;61691;53.072;6.582;2022-12-22T01:16:26;100301.63;;;9.01;83.38
73457;BME280;61691;53.072;6.582;2022-12-22T01:19:11;100296.34;;;9.01;83.21
73457;BME280;61691;53.072;6.582;2022-12-22T01:21:56;100319.59;;;9.16;83.62
73457;BME280;61691;53.072;6.582;2022-12-22T01:24:42;100325.56;;;9.18;83.20
73457;BME280;61691;53.072;6.582;2022-12-22T01:27:29;100309.72;;;9.09;83.71
73457;BME280;61691;53.072;6.582;2022-12-22T01:30:14;100313.19;;;9.09;83.62
73457;BME280;61691;53.072;6.582;2022-12-22T01:33:00;100309.72;;;9.09;83.56
73457;BME280;61691;53.072;6.582;2022-12-22T01:35:45;100279.06;;;8.97;83.40
73457;BME280;61691;53.072;6.582;2022-12-22T01:38:30;100278.25;;;8.96;83.32
73457;BME280;61691;53.072;6.582;2022-12-22T01:41:18;100326.28;;;9.20;83.37
73457;BME280;61691;53.072;6.582;2022-12-22T01:44:22;100275.75;;;8.95;83.67
73457;BME280;61691;53.072;6.582;2022-12-22T01:50:13;100311.25;;;9.21;83.57
73457;BME280;61691;53.072;6.582;2022-12-22T01:53:00;100288.56;;;9.09;83.77
73457;BME280;61691;53.072;6.582;2022-12-22T01:55:46;100312.91;;;9.22;83.76
73457;BME280;61691;53.072;6.582;2022-12-22T01:58:35;100312.91;;;9.22;83.86
73457;BME280;61691;53.072;6.582;2022-12-22T02:01:22;100306.09;;;9.19;83.64
73457;BME280;61691;53.072;6.582;2022-12-22T02:04:08;100304.16;;;9.21;83.87
73457;BME280;61691;53.072;6.582;2022-12-22T02:06:58;100251.66;;;8.98;83.86
73457;BME280;61691;53.072;6.582;2022-12-22T02:09:58;100291.47;;;9.25;83.76
73457;BME280;61691;53.072;6.582;2022-12-22T02:13:00;100261.13;;;9.10;83.62
73457;BME280;61691;53.072;6.582;2022-12-22T02:15:58;100274.09;;;9.22;83.91
73457;BME280;61691;53.072;6.582;2022-12-22T02:18:50;100281.06;;;9.23;83.54
73457;BME280;61691;53.072;6.582;2022-12-22T02:21:51;100266.56;;;9.18;83.91
73457;BME280;61691;53.072;6.582;2022-12-22T02:24:42;100268.09;;;9.11;83.63
73457;BME280;61691;53.072;6.582;2022-12-22T02:27:32;100266.84;;;9.15;83.52
73457;BME280;61691;53.072;6.582;2022-12-22T02:30:18;100270.88;;;9.19;83.94
73457;BME280;61691;53.072;6.582;2022-12-22T02:33:05;100255.56;;;9.13;83.91
73457;BME280;61691;53.072;6.582;2022-12-22T02:39:11;100267.53;;;9.26;83.88
73457;BME280;61691;53.072;6.582;2022-12-22T02:48:19;100250.81;;;9.26;83.76
73457;BME280;61691;53.072;6.582;2022-12-22T02:51:16;100255.13;;;9.27;83.82
73457;BME280;61691;53.072;6.582;2022-12-22T02:54:05;100237.19;;;9.21;83.50
73457;BME280;61691;53.072;6.582;2022-12-22T02:56:51;100248.88;;;9.28;84.06
73457;BME280;61691;53.072;6.582;2022-12-22T02:59:36;100253.19;;;9.29;83.65
73457;BME280;61691;53.072;6.582;2022-12-22T03:02:21;100224.25;;;9.18;84.00
73457;BME280;61691;53.072;6.582;2022-12-22T03:05:07;100228.56;;;9.19;83.78
73457;BME280;61691;53.072;6.582;2022-12-22T03:07:52;100224.38;;;9.26;83.92
73457;BME280;61691;53.072;6.582;2022-12-22T03:10:37;100196.69;;;9.11;83.49
73457;BME280;61691;53.072;6.582;2022-12-22T03:13:23;100223.97;;;9.21;83.91
73457;BME280;61691;53.072;6.582;2022-12-22T03:16:08;100212.69;;;9.19;83.80
73457;BME280;61691;53.072;6.582;2022-12-22T03:18:54;100213.66;;;9.18;83.88
73457;BME280;61691;53.072;6.582;2022-12-22T03:21:40;100222.69;;;9.25;83.58
73457;BME280;61691;53.072;6.582;2022-12-22T03:24:25;100216.75;;;9.23;84.14
73457;BME280;61691;53.072;6.582;2022-12-22T03:27:11;100193.38;;;9.09;83.87
73457;BME280;61691;53.072;6.582;2022-12-22T03:29:38;100223.84;;;9.32;83.89
73457;BME280;61691;53.072;6.582;2022-12-22T03:32:05;100220.88;;;9.35;83.78
73457;BME280;61691;53.072;6.582;2022-12-22T03:34:31;100208.09;;;9.30;84.00
73457;BME280;61691;53.072;6.582;2022-12-22T03:36:58;100204.63;;;9.30;83.72
73457;BME280;61691;53.072;6.582;2022-12-22T03:39:25;100196.44;;;9.23;84.05
73457;BME280;61691;53.072;6.582;2022-12-22T03:41:52;100209.47;;;9.25;83.54
73457;BME280;61691;53.072;6.582;2022-12-22T03:44:37;100197.25;;;9.24;83.87
73457;BME280;61691;53.072;6.582;2022-12-22T03:47:23;100144.44;;;8.85;83.84
73457;BME280;61691;53.072;6.582;2022-12-22T03:49:50;100216.88;;;9.31;83.82
73457;BME280;61691;53.072;6.582;2022-12-22T03:52:16;100159.44;;;8.95;83.67
73457;BME280;61691;53.072;6.582;2022-12-22T03:54:43;100202.94;;;9.19;83.97
73457;BME280;61691;53.072;6.582;2022-12-22T03:57:10;100212.81;;;9.27;83.47
73457;BME280;61691;53.072;6.582;2022-12-22T03:59:37;100210.75;;;9.21;83.83
73457;BME280;61691;53.072;6.582;2022-12-22T04:02:05;100194.75;;;9.13;84.10
73457;BME280;61691;53.072;6.582;2022-12-22T04:04:32;100206.84;;;9.25;83.73
73457;BME280;61691;53.072;6.582;2022-12-22T04:06:59;100193.22;;;9.20;84.02
73457;BME280;61691;53.072;6.582;2022-12-22T04:09:26;100201.72;;;9.23;83.67
73457;BME280;61691;53.072;6.582;2022-12-22T04:11:54;100173.88;;;9.10;83.68
73457;BME280;61691;53.072;6.582;2022-12-22T04:14:39;100188.91;;;9.19;83.91
73457;BME280;61691;53.072;6.582;2022-12-22T04:17:06;100177.91;;;9.14;83.99
73457;BME280;61691;53.072;6.582;2022-12-22T04:19:33;100203.09;;;9.27;84.10
73457;BME280;61691;53.072;6.582;2022-12-22T04:22:00;100177.66;;;9.17;83.74
73457;BME280;61691;53.072;6.582;2022-12-22T04:24:27;100198.34;;;9.31;83.84
73457;BME280;61691;53.072;6.582;2022-12-22T04:26:53;100207.25;;;9.30;83.90
73457;BME280;61691;53.072;6.582;2022-12-22T04:29:20;100205.59;;;9.29;84.00
73457;BME280;61691;53.072;6.582;2022-12-22T04:31:47;100183.03;;;9.25;83.65
73457;BME280;61691;53.072;6.582;2022-12-22T04:34:14;100175.94;;;9.25;83.95
73457;BME280;61691;53.072;6.582;2022-12-22T04:36:40;100160.94;;;9.16;83.90
73457;BME280;61691;53.072;6.582;2022-12-22T04:39:07;100157.59;;;9.14;84.17
73457;BME280;61691;53.072;6.582;2022-12-22T04:41:34;100167.47;;;9.22;83.71
73457;BME280;61691;53.072;6.582;2022-12-22T04:44:01;100158.56;;;9.23;83.74
73457;BME280;61691;53.072;6.582;2022-12-22T04:46:27;100135.22;;;9.09;83.80
73457;BME280;61691;53.072;6.582;2022-12-22T04:48:54;100158.25;;;9.26;83.71
73457;BME280;61691;53.072;6.582;2022-12-22T04:51:26;100122.25;;;9.06;83.80
73457;BME280;61691;53.072;6.582;2022-12-22T04:53:53;100144.91;;;9.18;84.04
73457;BME280;61691;53.072;6.582;2022-12-22T04:56:20;100163.00;;;9.32;83.80
73457;BME280;61691;53.072;6.582;2022-12-22T04:58:47;100148.97;;;9.22;84.04
73457;BME280;61691;53.072;6.582;2022-12-22T05:01:16;100160.22;;;9.24;83.99
73457;BME280;61691;53.072;6.582;2022-12-22T05:03:43;100165.22;;;9.27;83.93
73457;BME280;61691;53.072;6.582;2022-12-22T05:06:10;100187.78;;;9.31;83.98
73457;BME280;61691;53.072;6.582;2022-12-22T05:08:37;100158.31;;;9.16;83.70
73457;BME280;61691;53.072;6.582;2022-12-22T05:11:04;100168.16;;;9.24;83.74
73457;BME280;61691;53.072;6.582;2022-12-22T05:13:31;100157.16;;;9.19;83.89
73457;BME280;61691;53.072;6.582;2022-12-22T05:16:04;100175.81;;;9.27;84.16
73457;BME280;61691;53.072;6.582;2022-12-22T05:18:32;100182.22;;;9.24;83.70
73457;BME280;61691;53.072;6.582;2022-12-22T05:21:05;100178.03;;;9.22;83.88
73457;BME280;61691;53.072;6.582;2022-12-22T05:23:32;100154.38;;;9.11;84.09
73457;BME280;61691;53.072;6.582;2022-12-22T05:25:59;100187.22;;;9.27;83.96
73457;BME280;61691;53.072;6.582;2022-12-22T05:28:25;100183.34;;;9.22;84.02
73457;BME280;61691;53.072;6.582;2022-12-22T05:30:53;100163.72;;;9.05;83.74
73457;BME280;61691;53.072;6.582;2022-12-22T05:33:20;100181.66;;;9.21;84.24
73457;BME280;61691;53.072;6.582;2022-12-22T05:35:46;100189.72;;;9.19;83.78
73457;BME280;61691;53.072;6.582;2022-12-22T05:38:13;100181.94;;;9.18;84.25
73457;BME280;61691;53.072;6.582;2022-12-22T05:40:40;100184.88;;;9.15;84.15
73457;BME280;61691;53.072;6.582;2022-12-22T05:43:07;100185.16;;;9.12;83.82
73457;BME280;61691;53.072;6.582;2022-12-22T05:45:35;100184.44;;;9.10;83.77
73457;BME280;61691;53.072;6.582;2022-12-22T05:48:02;100208.09;;;9.21;84.14
73457;BME280;61691;53.072;6.582;2022-12-22T05:50:29;100193.91;;;9.12;84.10
73457;BME280;61691;53.072;6.582;2022-12-22T05:52:57;100179.16;;;9.10;83.83
73457;BME280;61691;53.072;6.582;2022-12-22T05:55:24;100191.84;;;9.16;84.16
73457;BME280;61691;53.072;6.582;2022-12-22T05:57:51;100147.34;;;8.92;84.21
73457;BME280;61691;53.072;6.582;2022-12-22T06:00:18;100185.84;;;9.14;84.23
73457;BME280;61691;53.072;6.582;2022-12-22T06:02:45;100114.13;;;8.70;83.82
73457;BME280;61691;53.072;6.582;2022-12-22T06:05:12;100141.91;;;8.84;84.14
73457;BME280;61691;53.072;6.582;2022-12-22T06:07:40;100175.00;;;8.98;84.16
73457;BME280;61691;53.072;6.582;2022-12-22T06:10:08;100185.59;;;8.98;83.74
73457;BME280;61691;53.072;6.582;2022-12-22T06:12:38;100203.25;;;9.07;83.98
73457;BME280;61691;53.072;6.582;2022-12-22T06:15:07;100195.31;;;9.07;83.88
73457;BME280;61691;53.072;6.582;2022-12-22T06:17:34;100185.59;;;8.98;83.84
73457;BME280;61691;53.072;6.582;2022-12-22T06:20:10;100200.59;;;9.07;83.96
73457;BME280;61691;53.072;6.582;2022-12-22T06:22:37;100194.09;;;9.01;84.24
73457;BME280;61691;53.072;6.582;2022-12-22T06:25:05;100203.53;;;9.04;84.25
73457;BME280;61691;53.072;6.582;2022-12-22T06:27:31;100188.09;;;8.89;83.92
73457;BME280;61691;53.072;6.582;2022-12-22T06:29:58;100208.53;;;8.97;83.98
73457;BME280;61691;53.072;6.582;2022-12-22T06:32:25;100212.03;;;8.98;83.79
73457;BME280;61691;53.072;6.582;2022-12-22T06:34:52;100205.91;;;8.97;83.63
73457;BME280;61691;53.072;6.582;2022-12-22T06:37:19;100182.66;;;8.81;84.14
73457;BME280;61691;53.072;6.582;2022-12-22T06:39:46;100151.34;;;8.58;84.09
73457;BME280;61691;53.072;6.582;2022-12-22T06:42:12;100175.97;;;8.58;83.67
73457;BME280;61691;53.072;6.582;2022-12-22T06:44:58;100200.19;;;8.63;83.97
73457;BME280;61691;53.072;6.582;2022-12-22T06:47:25;100195.31;;;8.49;83.84
73457;BME280;61691;53.072;6.582;2022-12-22T06:49:52;100195.00;;;8.42;83.41
73457;BME280;61691;53.072;6.582;2022-12-22T06:52:19;100139.44;;;7.94;83.46
73457;BME280;61691;53.072;6.582;2022-12-22T06:54:45;100215.22;;;8.23;83.62
73457;BME280;61691;53.072;6.582;2022-12-22T06:57:12;100205.59;;;8.12;83.58
73457;BME280;61691;53.072;6.582;2022-12-22T06:59:39;100194.31;;;8.00;83.86
73457;BME280;61691;53.072;6.582;2022-12-22T07:02:06;100226.41;;;8.05;83.60
73457;BME280;61691;53.072;6.582;2022-12-22T07:04:33;100212.63;;;7.92;84.06
73457;BME280;61691;53.072;6.582;2022-12-22T07:06:59;100207.28;;;7.83;83.96
73457;BME280;61691;53.072;6.582;2022-12-22T07:09:26;100223.88;;;7.94;83.73
73457;BME280;61691;53.072;6.582;2022-12-22T07:11:53;100208.41;;;7.80;83.51
73457;BME280;61691;53.072;6.582;2022-12-22T07:14:20;100217.00;;;7.82;83.58
73457;BME280;61691;53.072;6.582;2022-12-22T07:16:47;100240.69;;;7.93;83.45
73457;BME280;61691;53.072;6.582;2022-12-22T07:19:13;100234.50;;;7.83;83.84
73457;BME280;61691;53.072;6.582;2022-12-22T07:21:41;100251.25;;;7.93;83.78
73457;BME280;61691;53.072;6.582;2022-12-22T07:24:08;100258.19;;;7.94;83.47
73457;BME280;61691;53.072;6.582;2022-12-22T07:26:34;100260.13;;;7.92;83.94
73457;BME280;61691;53.072;6.582;2022-12-22T07:29:01;100218.06;;;7.70;83.66
73457;BME280;61691;53.072;6.582;2022-12-22T07:31:28;100274.09;;;8.04;83.62
73457;BME280;61691;53.072;6.582;2022-12-22T07:33:55;100256.69;;;8.01;83.51
73457;BME280;61691;53.072;6.582;2022-12-22T07:36:22;100272.97;;;8.06;83.40
73457;BME280;61691;53.072;6.582;2022-12-22T07:38:50;100279.19;;;8.05;83.58
73457;BME280;61691;53.072;6.582;2022-12-22T07:41:18;100254.41;;;7.87;83.59
73457;BME280;61691;53.072;6.582;2022-12-22T07:44:04;100282.13;;;8.02;83.91
73457;BME280;61691;53.072;6.582;2022-12-22T07:46:34;100256.16;;;7.77;83.79
73457;BME280;61691;53.072;6.582;2022-12-22T07:49:03;100291.53;;;7.95;83.50
73457;BME280;61691;53.072;6.582;2022-12-22T07:51:49;100282.31;;;7.90;84.00
73457;BME280;61691;53.072;6.582;2022-12-22T07:54:17;100291.22;;;7.89;83.64
73457;BME280;61691;53.072;6.582;2022-12-22T07:56:46;100280.34;;;7.82;83.69
73457;BME280;61691;53.072;6.582;2022-12-22T07:59:13;100292.31;;;7.86;83.98
73457;BME280;61691;53.072;6.582;2022-12-22T08:01:40;100291.06;;;7.90;83.81
73457;BME280;61691;53.072;6.582;2022-12-22T08:04:08;100299.28;;;7.87;83.67
73457;BME280;61691;53.072;6.582;2022-12-22T08:06:36;100282.84;;;7.84;83.71
73457;BME280;61691;53.072;6.582;2022-12-22T08:09:04;100213.72;;;7.38;83.96
73457;BME280;61691;53.072;6.582;2022-12-22T08:11:32;100307.38;;;7.95;83.92
73457;BME280;61691;53.072;6.582;2022-12-22T08:13:59;100284.53;;;7.85;83.71
73457;BME280;61691;53.072;6.582;2022-12-22T08:16:28;100291.66;;;7.94;83.38
73457;BME280;61691;53.072;6.582;2022-12-22T08:18:55;100265.63;;;7.80;83.81
73457;BME280;61691;53.072;6.582;2022-12-22T08:21:22;100289.47;;;7.99;83.31
73457;BME280;61691;53.072;6.582;2022-12-22T08:23:49;100266.72;;;7.77;83.68
73457;BME280;61691;53.072;6.582;2022-12-22T08:26:22;100295.13;;;7.94;83.88
73457;BME280;61691;53.072;6.582;2022-12-22T08:28:55;100286.91;;;7.88;83.42
73457;BME280;61691;53.072;6.582;2022-12-22T08:31:26;100299.34;;;7.97;83.69
73457;BME280;61691;53.072;6.582;2022-12-22T08:33:56;100286.31;;;7.84;83.58
73457;BME280;61691;53.072;6.582;2022-12-22T08:36:25;100314.06;;;7.99;83.58
73457;BME280;61691;53.072;6.582;2022-12-22T08:38:52;100295.38;;;7.91;83.48
73457;BME280;61691;53.072;6.582;2022-12-22T08:41:19;100307.50;;;7.94;83.18
73457;BME280;61691;53.072;6.582;2022-12-22T08:44:06;100326.03;;;8.03;83.48
73457;BME280;61691;53.072;6.582;2022-12-22T08:46:33;100336.59;;;8.03;83.38
73457;BME280;61691;53.072;6.582;2022-12-22T08:49:00;100315.16;;;7.97;83.10
73457;BME280;61691;53.072;6.582;2022-12-22T08:51:27;100303.44;;;7.90;83.06
73457;BME280;61691;53.072;6.582;2022-12-22T08:53:54;100249.63;;;7.51;83.13
73457;BME280;61691;53.072;6.582;2022-12-22T08:56:31;100333.47;;;7.98;83.37
73457;BME280;61691;53.072;6.582;2022-12-22T08:58:57;100342.38;;;7.97;83.39
73457;BME280;61691;53.072;6.582;2022-12-22T09:01:24;100311.56;;;7.77;83.25
73457;BME280;61691;53.072;6.582;2022-12-22T09:03:52;100343.59;;;7.93;83.61
73457;BME280;61691;53.072;6.582;2022-12-22T09:06:21;100345.66;;;7.90;83.13
73457;BME280;61691;53.072;6.582;2022-12-22T09:08:57;100335.06;;;7.80;83.25
73457;BME280;61691;53.072;6.582;2022-12-22T09:11:26;100321.66;;;7.72;83.36
73457;BME280;61691;53.072;6.582;2022-12-22T09:13:54;100343.84;;;7.90;83.35
73457;BME280;61691;53.072;6.582;2022-12-22T09:16:22;100345.34;;;7.83;83.45
73457;BME280;61691;53.072;6.582;2022-12-22T09:18:51;100348.69;;;7.85;83.38
73457;BME280;61691;53.072;6.582;2022-12-22T09:21:18;100350.63;;;7.83;83.03
73457;BME280;61691;53.072;6.582;2022-12-22T09:23:45;100289.00;;;7.43;83.25
73457;BME280;61691;53.072;6.582;2022-12-22T09:26:14;100333.91;;;7.73;83.17
73457;BME280;61691;53.072;6.582;2022-12-22T09:28:41;100352.28;;;7.84;83.05
73457;BME280;61691;53.072;6.582;2022-12-22T09:31:16;100366.72;;;7.80;82.76
73457;BME280;61691;53.072;6.582;2022-12-22T09:33:43;100345.22;;;7.64;82.87
73457;BME280;61691;53.072;6.582;2022-12-22T09:36:12;100329.91;;;7.58;83.18
73457;BME280;61691;53.072;6.582;2022-12-22T09:38:40;100373.47;;;7.73;83.22
73457;BME280;61691;53.072;6.582;2022-12-22T09:41:29;100379.97;;;7.69;82.52
73457;BME280;61691;53.072;6.582;2022-12-22T09:44:05;100372.44;;;7.64;82.57
73457;BME280;61691;53.072;6.582;2022-12-22T09:46:36;100329.69;;;7.29;82.70
73457;BME280;61691;53.072;6.582;2022-12-22T09:49:04;100371.78;;;7.51;82.54
73457;BME280;61691;53.072;6.582;2022-12-22T09:51:40;100365.34;;;7.44;82.93
73457;BME280;61691;53.072;6.582;2022-12-22T09:54:10;100372.84;;;7.49;82.88
73457;BME280;61691;53.072;6.582;2022-12-22T09:56:38;100353.03;;;7.33;83.01
73457;BME280;61691;53.072;6.582;2022-12-22T09:59:15;100378.25;;;7.47;82.63
73457;BME280;61691;53.072;6.582;2022-12-22T10:02:00;100381.28;;;7.43;82.88
73457;BME280;61691;53.072;6.582;2022-12-22T10:07:31;100393.63;;;7.42;83.07
73457;BME280;61691;53.072;6.582;2022-12-22T10:12:38;100355.31;;;7.27;83.06
73457;BME280;61691;53.072;6.582;2022-12-22T10:15:09;100351.34;;;7.32;83.00
73457;BME280;61691;53.072;6.582;2022-12-22T10:17:39;100385.94;;;7.50;82.71
73457;BME280;61691;53.072;6.582;2022-12-22T10:20:26;100367.00;;;7.45;82.58
73457;BME280;61691;53.072;6.582;2022-12-22T10:23:00;100397.25;;;7.62;83.02
73457;BME280;61691;53.072;6.582;2022-12-22T10:25:34;100376.53;;;7.57;82.98
73457;BME280;61691;53.072;6.582;2022-12-22T10:28:24;100396.25;;;7.74;82.94
73457;BME280;61691;53.072;6.582;2022-12-22T10:33:44;100400.09;;;7.91;82.87
73457;BME280;61691;53.072;6.582;2022-12-22T10:36:18;100385.84;;;7.93;82.59
73457;BME280;61691;53.072;6.582;2022-12-22T10:38:59;100397.75;;;8.08;82.91
73457;BME280;61691;53.072;6.582;2022-12-22T10:41:47;100398.66;;;8.19;83.08
73457;BME280;61691;53.072;6.582;2022-12-22T10:46:45;100390.41;;;8.33;82.91
73457;BME280;61691;53.072;6.582;2022-12-22T10:49:24;100406.88;;;8.46;82.48
73457;BME280;61691;53.072;6.582;2022-12-22T10:54:34;100355.59;;;8.28;82.40
73457;BME280;61691;53.072;6.582;2022-12-22T10:57:21;100392.47;;;8.60;82.16
73457;BME280;61691;53.072;6.582;2022-12-22T10:59:59;100389.72;;;8.61;82.09
73457;BME280;61691;53.072;6.582;2022-12-22T11:02:34;100400.31;;;8.71;81.89
73457;BME280;61691;53.072;6.582;2022-12-22T11:05:06;100382.75;;;8.60;82.40
73457;BME280;61691;53.072;6.582;2022-12-22T11:07:36;100400.72;;;8.66;82.00
73457;BME280;61691;53.072;6.582;2022-12-22T11:10:15;100391.63;;;8.59;81.67
73457;BME280;61691;53.072;6.582;2022-12-22T11:15:42;100399.25;;;8.52;81.57
73457;BME280;61691;53.072;6.582;2022-12-22T11:18:51;100415.38;;;8.49;81.93
73457;BME280;61691;53.072;6.582;2022-12-22T11:24:19;100425.19;;;8.38;81.69
73457;BME280;61691;53.072;6.582;2022-12-22T11:30:07;100418.75;;;8.31;81.46
73457;BME280;61691;53.072;6.582;2022-12-22T11:32:51;100416.94;;;8.31;81.89
73457;BME280;61691;53.072;6.582;2022-12-22T11:40:54;100418.75;;;8.31;81.91
73457;BME280;61691;53.072;6.582;2022-12-22T11:55:09;100420.53;;;8.51;81.69
73457;BME280;61691;53.072;6.582;2022-12-22T11:57:54;100403.81;;;8.41;81.83
73457;BME280;61691;53.072;6.582;2022-12-22T12:00:24;100408.28;;;8.50;81.79
73457;BME280;61691;53.072;6.582;2022-12-22T12:16:57;100414.19;;;8.63;81.39
73457;BME280;61691;53.072;6.582;2022-12-22T12:22:48;100422.56;;;8.68;81.47
73457;BME280;61691;53.072;6.582;2022-12-22T12:30:58;100400.53;;;8.58;81.16
73457;BME280;61691;53.072;6.582;2022-12-22T12:44:21;100404.78;;;8.70;81.33
73457;BME280;61691;53.072;6.582;2022-12-22T12:52:05;100420.94;;;8.77;81.07
73457;BME280;61691;53.072;6.582;2022-12-22T12:54:33;100419.84;;;8.79;81.01
73457;BME280;61691;53.072;6.582;2022-12-22T12:57:22;100405.03;;;8.67;80.79
73457;BME280;61691;53.072;6.582;2022-12-22T12:59:50;100419.56;;;8.82;81.03
73457;BME280;61691;53.072;6.582;2022-12-22T13:10:38;100425.47;;;9.05;81.24
73457;BME280;61691;53.072;6.582;2022-12-22T13:13:09;100386.47;;;8.88;80.88
73457;BME280;61691;53.072;6.582;2022-12-22T13:15:39;100404.03;;;8.99;80.71
73457;BME280;61691;53.072;6.582;2022-12-22T13:26:43;100415.63;;;9.17;80.58
73457;BME280;61691;53.072;6.582;2022-12-22T13:32:01;100435.81;;;9.27;80.17
73457;BME280;61691;53.072;6.582;2022-12-22T13:34:47;100394.16;;;9.10;79.80
73457;BME280;61691;53.072;6.582;2022-12-22T13:37:40;100437.53;;;9.38;80.29
73457;BME280;61691;53.072;6.582;2022-12-22T13:40:15;100439.50;;;9.46;80.29
73457;BME280;61691;53.072;6.582;2022-12-22T13:42:50;100440.88;;;9.50;80.02
73457;BME280;61691;53.072;6.582;2022-12-22T13:48:04;100443.81;;;9.56;79.73
73457;BME280;61691;53.072;6.582;2022-12-22T13:50:38;100429.47;;;9.49;79.68
73457;BME280;61691;53.072;6.582;2022-12-22T13:53:09;100446.19;;;9.59;79.84
73457;BME280;61691;53.072;6.582;2022-12-22T13:55:48;100444.25;;;9.61;79.67
73457;BME280;61691;53.072;6.582;2022-12-22T13:58:26;100442.03;;;9.66;79.58
73457;BME280;61691;53.072;6.582;2022-12-22T14:03:43;100456.22;;;9.75;79.91
73457;BME280;61691;53.072;6.582;2022-12-22T14:06:34;100408.16;;;9.60;79.68
73457;BME280;61691;53.072;6.582;2022-12-22T14:11:40;100432.53;;;9.74;79.34
73457;BME280;61691;53.072;6.582;2022-12-22T14:14:19;100443.72;;;9.77;79.18
73457;BME280;61691;53.072;6.582;2022-12-22T14:16:48;100452.19;;;9.81;79.07
73457;BME280;61691;53.072;6.582;2022-12-22T14:19:16;100444.50;;;9.78;79.02
73457;BME280;61691;53.072;6.582;2022-12-22T14:21:46;100447.88;;;9.80;78.83
73457;BME280;61691;53.072;6.582;2022-12-22T14:24:19;100446.19;;;9.79;78.48
73457;BME280;61691;53.072;6.582;2022-12-22T14:26:50;100399.94;;;9.44;79.08
73457;BME280;61691;53.072;6.582;2022-12-22T14:29:21;100443.41;;;9.70;78.68
73457;BME280;61691;53.072;6.582;2022-12-22T14:31:59;100425.56;;;9.63;78.75
73457;BME280;61691;53.072;6.582;2022-12-22T14:34:32;100441.47;;;9.73;78.75
73457;BME280;61691;53.072;6.582;2022-12-22T14:37:01;100441.75;;;9.69;78.53
73457;BME280;61691;53.072;6.582;2022-12-22T14:39:30;100407.44;;;9.49;78.48
73457;BME280;61691;53.072;6.582;2022-12-22T14:42:04;100443.41;;;9.70;78.55
73457;BME280;61691;53.072;6.582;2022-12-22T14:44:45;100439.38;;;9.66;78.44
73457;BME280;61691;53.072;6.582;2022-12-22T14:47:14;100437.00;;;9.63;78.35
73457;BME280;61691;53.072;6.582;2022-12-22T14:49:47;100442.00;;;9.57;77.88
73457;BME280;61691;53.072;6.582;2022-12-22T14:52:25;100403.53;;;9.24;78.21
73457;BME280;61691;53.072;6.582;2022-12-22T14:54:55;100411.91;;;9.29;78.09
73457;BME280;61691;53.072;6.582;2022-12-22T14:57:29;100432.50;;;9.35;78.52
73457;BME280;61691;53.072;6.582;2022-12-22T15:00:24;100440.72;;;9.32;78.53
73457;BME280;61691;53.072;6.582;2022-12-22T15:02:51;100438.34;;;9.29;78.46
73457;BME280;61691;53.072;6.582;2022-12-22T15:05:36;100426.91;;;9.19;78.02
73457;BME280;61691;53.072;6.582;2022-12-22T15:08:05;100426.34;;;9.25;78.23
73457;BME280;61691;53.072;6.582;2022-12-22T15:10:40;100422.72;;;9.16;78.43
73457;BME280;61691;53.072;6.582;2022-12-22T15:13:17;100401.25;;;9.00;78.36
73457;BME280;61691;53.072;6.582;2022-12-22T15:15:44;100416.03;;;9.12;78.36
73457;BME280;61691;53.072;6.582;2022-12-22T15:18:13;100418.66;;;9.12;78.44
73457;BME280;61691;53.072;6.582;2022-12-22T15:20:40;100437.75;;;9.16;78.10
73457;BME280;61691;53.072;6.582;2022-12-22T15:23:13;100404.28;;;8.96;78.40
73457;BME280;61691;53.072;6.582;2022-12-22T15:25:43;100394.25;;;8.89;78.25
73457;BME280;61691;53.072;6.582;2022-12-22T15:28:10;100417.97;;;9.01;78.35
73457;BME280;61691;53.072;6.582;2022-12-22T15:30:37;100438.72;;;9.15;78.28
73457;BME280;61691;53.072;6.582;2022-12-22T15:33:10;100431.75;;;9.14;78.47
73457;BME280;61691;53.072;6.582;2022-12-22T15:35:38;100436.34;;;9.12;78.71
73457;BME280;61691;53.072;6.582;2022-12-22T15:38:12;100430.88;;;9.04;78.46